Time;durP1;ratioP1;P1;durP2;ratioP2;P2;SDS_P1;SDS_P2;PMS_P1;PMS_P2;Temp;Humidity;BMP_temperature;BMP_pressure;BME280_temperature;BME280_humidity;BME280_pressure;Samples;Min_cycle;Max_cycle;Signal;HPM_P1;HPM_P2
2023/07/21 00:02:16;;;;;;;4.43;2.92;;;15.30;99.90;;;;;;4952884;28;20031;-89
2023/07/21 00:04:45;;;;;;;6.20;3.03;;;15.30;99.90;;;;;;4956793;28;20751;-90
2023/07/21 00:07:20;;;;;;;4.97;3.28;;;15.30;99.90;;;;;;4968904;28;20043;-91
2023/07/21 00:09:46;;;;;;;;;;;15.20;99.90;;;;;;5053730;28;20125;-89
2023/07/21 00:12:12;;;;;;;3.70;3.00;;;15.90;99.90;;;;;;4957845;28;19940;-91
2023/07/21 00:14:38;;;;;;;5.32;3.08;;;15.20;99.90;;;;;;4961928;28;20039;-91
2023/07/21 00:17:05;;;;;;;4.15;3.20;;;15.10;99.90;;;;;;4940224;28;20035;-91
2023/07/21 00:19:31;;;;;;;5.97;3.42;;;15.10;99.90;;;;;;4961979;28;20443;-90
2023/07/21 00:21:57;;;;;;;5.43;3.20;;;15.20;99.90;;;;;;4960668;28;20050;-91
2023/07/21 00:24:24;;;;;;;6.28;3.47;;;15.10;99.90;;;;;;5055247;28;20050;-89
2023/07/21 00:26:52;;;;;;;4.45;2.50;;;15.10;99.90;;;;;;4976601;28;20045;-90
2023/07/21 00:29:19;;;;;;;2.33;1.90;;;14.70;99.90;;;;;;5054519;28;20050;-90
2023/07/21 00:31:49;;;;;;;3.63;2.40;;;13.40;99.90;;;;;;4991020;28;20032;-92
2023/07/21 00:34:15;;;;;;;2.97;2.50;;;14.00;99.90;;;;;;5021798;28;20040;-92
2023/07/21 00:36:40;;;;;;;4.35;2.95;;;14.00;99.90;;;;;;5037999;28;20041;-90
2023/07/21 00:39:06;;;;;;;5.63;3.42;;;13.80;99.90;;;;;;4971365;28;20102;-91
2023/07/21 00:41:32;;;;;;;5.90;3.22;;;13.70;99.90;;;;;;5023777;28;20031;-89
2023/07/21 00:43:57;;;;;;;4.55;3.28;;;13.70;99.90;;;;;;4976674;28;20042;-89
2023/07/21 00:46:24;;;;;;;2.97;2.47;;;13.70;99.90;;;;;;4929638;28;20655;-89
2023/07/21 00:48:52;;;;;;;2.90;2.60;;;13.70;99.90;;;;;;5055242;28;20712;-92
2023/07/21 00:51:19;;;;;;;4.22;2.90;;;13.70;99.90;;;;;;4956279;28;20428;-90
2023/07/21 00:53:46;;;;;;;3.65;2.97;;;13.60;99.90;;;;;;4955745;28;20062;-90
2023/07/21 00:56:14;;;;;;;5.32;2.90;;;13.40;99.90;;;;;;4957028;28;20129;-90
2023/07/21 00:58:47;;;;;;;4.00;3.20;;;13.30;99.90;;;;;;4966013;28;20039;-91
2023/07/21 01:01:13;;;;;;;4.00;2.83;;;13.30;99.90;;;;;;5054689;28;20127;-88
2023/07/21 01:03:39;;;;;;;7.90;3.33;;;13.30;99.90;;;;;;5045202;28;20466;-91
2023/07/21 01:06:08;;;;;;;3.50;2.80;;;13.20;99.90;;;;;;4966097;28;20038;-89
2023/07/21 01:08:38;;;;;;;5.38;3.10;;;13.10;99.90;;;;;;4980702;28;20115;-89
2023/07/21 01:11:06;;;;;;;4.68;3.65;;;13.00;99.90;;;;;;4978280;28;20494;-89
2023/07/21 01:13:32;;;;;;;4.03;3.60;;;13.00;99.90;;;;;;5039508;28;20034;-89
2023/07/21 01:16:00;;;;;;;6.38;3.83;;;12.90;99.90;;;;;;4971052;28;20050;-90
2023/07/21 01:18:26;;;;;;;5.55;3.92;;;13.00;99.90;;;;;;4975972;28;20038;-89
2023/07/21 01:20:53;;;;;;;4.40;3.45;;;13.10;99.90;;;;;;4991563;28;20086;-89
2023/07/21 01:23:40;;;;;;;5.65;3.65;;;13.20;99.90;;;;;;5048238;28;20383;-88
2023/07/21 01:26:10;;;;;;;4.63;3.42;;;13.30;99.90;;;;;;5070625;28;20045;-89
2023/07/21 01:28:39;;;;;;;6.05;4.20;;;13.30;99.90;;;;;;4983988;28;20506;-89
2023/07/21 01:31:06;;;;;;;4.90;3.88;;;13.30;99.90;;;;;;4989536;28;20500;-90
2023/07/21 01:33:33;;;;;;;3.97;3.58;;;13.40;99.90;;;;;;4967718;28;21593;-91
2023/07/21 01:36:01;;;;;;;5.00;4.32;;;13.40;99.90;;;;;;4940588;28;20041;-89
2023/07/21 01:38:29;;;;;;;4.32;3.75;;;13.50;99.90;;;;;;4981400;28;20039;-89
2023/07/21 01:40:55;;;;;;;4.88;3.28;;;13.40;99.90;;;;;;4940831;28;20380;-90
2023/07/21 01:43:23;;;;;;;7.72;3.83;;;13.20;99.90;;;;;;4943504;28;20701;-89
2023/07/21 01:45:49;;;;;;;5.45;3.58;;;13.20;99.90;;;;;;4940793;28;20475;-92
2023/07/21 01:48:20;;;;;;;3.78;3.22;;;13.10;99.90;;;;;;5067122;28;20393;-90
2023/07/21 01:50:49;;;;;;;5.53;3.55;;;13.00;99.90;;;;;;5048545;28;20045;-88
2023/07/21 01:53:23;;;;;;;5.18;3.20;;;12.90;99.90;;;;;;5045346;28;20046;-90
2023/07/21 01:56:01;;;;;;;3.40;3.10;;;12.90;99.90;;;;;;4982724;28;20034;-89
2023/07/21 01:58:42;;;;;;;4.15;3.08;;;12.80;99.90;;;;;;5017498;28;20056;-89
2023/07/21 02:01:10;;;;;;;4.63;3.15;;;12.80;99.90;;;;;;4986445;28;20129;-89
2023/07/21 02:03:38;;;;;;;5.75;3.17;;;12.80;99.90;;;;;;5031245;28;20453;-88
2023/07/21 02:06:17;;;;;;;3.38;2.70;;;13.30;99.90;;;;;;4995414;28;20072;-90
2023/07/21 02:08:43;;;;;;;6.68;3.30;;;12.80;99.90;;;;;;4959880;28;20457;-89
2023/07/21 02:11:12;;;;;;;3.97;3.30;;;12.90;99.90;;;;;;4968720;28;20107;-89
2023/07/21 02:13:39;;;;;;;3.88;3.30;;;12.90;99.90;;;;;;4983836;28;20075;-92
2023/07/21 02:16:07;;;;;;;6.20;3.83;;;12.90;99.90;;;;;;5054650;28;20501;-89
2023/07/21 02:18:37;;;;;;;5.88;3.42;;;12.90;99.90;;;;;;4956005;28;20118;-89
2023/07/21 02:21:04;;;;;;;5.97;3.80;;;12.80;99.90;;;;;;4972336;28;20051;-92
2023/07/21 02:23:31;;;;;;;6.20;3.53;;;12.90;99.90;;;;;;4944672;28;20042;-90
2023/07/21 02:25:57;;;;;;;6.85;3.80;;;12.90;99.90;;;;;;4964032;28;20045;-88
2023/07/21 02:28:24;;;;;;;5.22;3.80;;;;;;;;;;4955005;28;20713;-90
2023/07/21 02:31:03;;;;;;;5.03;3.40;;;13.10;99.90;;;;;;4972132;28;20540;-89
2023/07/21 02:33:38;;;;;;;5.10;3.67;;;13.10;99.90;;;;;;5059439;28;20460;-89
2023/07/21 02:36:07;;;;;;;6.65;4.13;;;13.10;99.90;;;;;;4972302;28;20095;-89
2023/07/21 02:38:36;;;;;;;4.45;3.97;;;13.20;99.90;;;;;;4962894;28;20049;-88
2023/07/21 02:41:12;;;;;;;5.78;4.13;;;13.10;99.90;;;;;;4978694;28;20043;-87
2023/07/21 02:43:38;;;;;;;5.32;3.97;;;13.20;99.90;;;;;;4970267;28;20034;-91
2023/07/21 02:46:11;;;;;;;6.20;4.20;;;13.30;99.90;;;;;;4975161;28;20497;-89
2023/07/21 02:48:40;;;;;;;5.38;3.88;;;12.80;99.90;;;;;;4959470;28;20100;-89
2023/07/21 02:51:08;;;;;;;3.75;3.33;;;13.30;99.90;;;;;;4965335;28;20094;-89
2023/07/21 02:53:36;;;;;;;5.57;4.45;;;13.40;99.90;;;;;;4973493;28;20054;-88
2023/07/21 02:56:09;;;;;;;5.10;4.22;;;13.40;99.90;;;;;;4967954;28;20092;-91
2023/07/21 02:58:38;;;;;;;5.80;4.15;;;13.40;99.90;;;;;;4981428;28;20034;-89
2023/07/21 03:01:03;;;;;;;6.80;4.88;;;13.40;99.90;;;;;;4983110;28;20504;-89
2023/07/21 03:03:32;;;;;;;4.70;4.22;;;13.50;99.90;;;;;;4965601;28;20045;-91
2023/07/21 03:05:59;;;;;;;6.30;4.75;;;13.50;99.90;;;;;;5003062;28;20493;-89
2023/07/21 03:08:30;;;;;;;10.30;4.22;;;13.50;99.90;;;;;;5037283;28;20042;-91
2023/07/21 03:10:57;;;;;;;5.85;4.35;;;13.50;99.90;;;;;;5048598;28;20045;-90
2023/07/21 03:13:25;;;;;;;5.78;4.50;;;13.50;99.90;;;;;;5060640;28;20038;-89
2023/07/21 03:15:54;;;;;;;6.68;4.22;;;13.30;99.90;;;;;;4954775;28;20092;-90
2023/07/21 03:18:20;;;;;;;5.10;3.65;;;13.40;99.90;;;;;;4987159;28;20049;-89
2023/07/21 03:20:49;;;;;;;5.28;4.05;;;13.50;99.90;;;;;;4982413;28;20033;-91
2023/07/21 03:23:18;;;;;;;8.98;4.22;;;13.50;99.90;;;;;;4970685;28;20088;-89
2023/07/21 03:25:49;;;;;;;5.63;4.00;;;13.40;99.90;;;;;;5056093;28;20382;-89
2023/07/21 03:28:18;;;;;;;5.65;4.05;;;13.20;99.90;;;;;;5043253;28;20045;-90
2023/07/21 03:30:45;;;;;;;5.50;3.55;;;13.50;99.90;;;;;;4955491;28;20438;-89
2023/07/21 03:33:11;;;;;;;4.78;3.22;;;13.40;99.90;;;;;;4983535;28;20050;-91
2023/07/21 03:35:39;;;;;;;4.78;3.75;;;13.40;99.90;;;;;;5055062;28;20051;-89
2023/07/21 03:38:05;;;;;;;8.45;3.50;;;13.20;99.90;;;;;;5043559;28;20046;-88
2023/07/21 03:40:30;;;;;;;6.10;4.00;;;13.30;99.90;;;;;;4967065;28;20091;-88
2023/07/21 03:42:57;;;;;;;5.07;3.30;;;13.40;99.90;;;;;;4969294;28;20038;-88
2023/07/21 03:45:23;;;;;;;4.40;3.30;;;13.40;99.90;;;;;;5006751;28;20042;-88
2023/07/21 03:47:49;;;;;;;4.45;3.25;;;13.50;99.90;;;;;;5055713;28;20077;-89
2023/07/21 03:50:15;;;;;;;5.13;3.50;;;13.50;99.90;;;;;;4954734;28;20074;-89
2023/07/21 03:52:41;;;;;;;6.25;3.60;;;13.60;99.90;;;;;;5038266;28;20072;-88
2023/07/21 03:55:07;;;;;;;6.75;3.60;;;13.60;99.90;;;;;;5018222;28;20034;-88
2023/07/21 03:57:34;;;;;;;6.47;4.25;;;13.60;99.90;;;;;;4985755;28;20034;-88
2023/07/21 03:59:59;;;;;;;4.47;3.75;;;13.70;99.90;;;;;;5055775;28;20046;-88
2023/07/21 04:02:25;;;;;;;5.32;4.25;;;13.70;99.90;;;;;;5054385;28;20035;-89
2023/07/21 04:04:53;;;;;;;5.20;4.25;;;13.80;99.90;;;;;;5040560;28;20296;-90
2023/07/21 04:07:21;;;;;;;5.82;4.68;;;13.80;99.90;;;;;;5076735;28;20132;-89
2023/07/21 04:09:50;;;;;;;5.57;4.35;;;13.80;99.90;;;;;;4991392;28;20101;-88
2023/07/21 04:12:25;;;;;;;7.15;5.15;;;14.40;99.90;;;;;;4953173;28;20568;-88
2023/07/21 04:14:51;;;;;;;7.15;5.72;;;13.90;99.90;;;;;;5059510;28;20066;-87
2023/07/21 04:17:16;;;;;;;8.57;5.60;;;13.90;99.90;;;;;;4968872;28;20132;-88
2023/07/21 04:19:42;;;;;;;8.02;5.60;;;13.80;99.90;;;;;;5040203;28;20408;-91
2023/07/21 04:22:08;;;;;;;7.65;5.13;;;13.90;99.90;;;;;;4988711;28;20049;-90
2023/07/21 04:24:34;;;;;;;7.20;5.13;;;13.90;99.90;;;;;;5056550;28;20049;-90
2023/07/21 04:27:00;;;;;;;8.63;5.68;;;13.90;99.90;;;;;;4973451;28;20045;-90
2023/07/21 04:29:26;;;;;;;6.18;4.88;;;13.90;99.90;;;;;;5035723;28;20038;-89
2023/07/21 04:31:52;;;;;;;8.60;4.88;;;13.90;99.90;;;;;;5060351;28;20391;-89
2023/07/21 04:34:19;;;;;;;5.03;3.88;;;13.80;99.90;;;;;;5003779;28;20085;-89
2023/07/21 04:36:47;;;;;;;4.70;3.30;;;13.20;99.90;;;;;;5032909;28;20042;-89
2023/07/21 04:39:13;;;;;;;8.07;3.45;;;12.80;99.90;;;;;;5068579;28;20099;-90
2023/07/21 04:41:39;;;;;;;5.93;4.07;;;12.80;99.90;;;;;;4945295;28;20035;-89
2023/07/21 04:44:04;;;;;;;4.47;3.25;;;12.80;99.90;;;;;;5052424;28;20126;-90
2023/07/21 04:46:30;;;;;;;4.40;4.00;;;12.90;99.90;;;;;;5054485;28;20043;-89
2023/07/21 04:48:57;;;;;;;5.97;4.50;;;12.90;99.90;;;;;;4943248;28;20049;-90
2023/07/21 04:51:23;;;;;;;6.80;4.05;;;13.00;99.90;;;;;;4973434;28;20054;-92
2023/07/21 04:53:49;;;;;;;4.68;4.18;;;13.20;99.90;;;;;;4955014;28;20129;-92
2023/07/21 04:56:14;;;;;;;4.85;3.92;;;13.10;99.90;;;;;;5055380;28;20046;-88
2023/07/21 04:58:41;;;;;;;4.15;3.67;;;13.20;99.90;;;;;;5056696;28;20074;-90
2023/07/21 05:01:07;;;;;;;4.90;3.67;;;13.30;99.90;;;;;;5058377;28;20035;-90
2023/07/21 05:03:33;;;;;;;5.40;4.00;;;13.40;99.90;;;;;;5044318;28;20092;-91
2023/07/21 05:05:58;;;;;;;4.57;4.07;;;13.50;99.90;;;;;;4955413;28;20419;-91
2023/07/21 05:08:25;;;;;;;6.65;4.40;;;13.70;99.90;;;;;;4966360;28;20086;-90
2023/07/21 05:11:00;;;;;;;4.57;3.75;;;14.00;99.90;;;;;;5061263;28;20059;-91
2023/07/21 05:13:26;;;;;;;5.45;4.47;;;13.70;99.90;;;;;;4973836;28;20089;-89
2023/07/21 05:15:52;;;;;;;6.72;4.00;;;14.20;99.90;;;;;;4979483;28;20045;-89
2023/07/21 05:18:18;;;;;;;7.03;4.38;;;14.30;99.90;;;;;;4994646;28;20042;-89
2023/07/21 05:20:43;;;;;;;10.00;4.30;;;14.40;99.90;;;;;;4942074;28;20043;-90
2023/07/21 05:23:12;;;;;;;8.23;3.42;;;14.50;99.90;;;;;;5057397;28;20363;-89
2023/07/21 05:25:38;;;;;;;4.88;3.50;;;14.60;99.90;;;;;;4990511;28;20129;-90
2023/07/21 05:28:04;;;;;;;5.57;3.67;;;14.80;99.90;;;;;;5055734;28;20074;-90
2023/07/21 05:30:30;;;;;;;6.25;3.38;;;14.90;99.90;;;;;;4955855;28;20749;-90
2023/07/21 05:33:01;;;;;;;7.68;3.00;;;15.00;99.90;;;;;;5057654;28;21612;-90
2023/07/21 05:35:28;;;;;;;7.28;3.13;;;15.10;99.90;;;;;;4963520;28;20043;-90
2023/07/21 05:37:55;;;;;;;4.07;3.00;;;15.20;99.90;;;;;;5008907;28;20036;-90
2023/07/21 05:40:21;;;;;;;6.15;2.90;;;15.20;99.90;;;;;;5056931;28;20046;-88
2023/07/21 05:42:47;;;;;;;7.18;3.17;;;15.10;99.90;;;;;;4958843;28;20045;-89
2023/07/21 05:45:13;;;;;;;3.42;2.53;;;15.50;99.90;;;;;;4983184;28;20082;-90
2023/07/21 05:47:39;;;;;;;5.30;2.95;;;15.50;99.90;;;;;;5058043;28;20104;-89
2023/07/21 05:50:08;;;;;;;6.75;2.97;;;15.50;99.90;;;;;;5073893;28;20042;-91
2023/07/21 05:52:37;;;;;;;4.72;2.90;;;15.50;99.90;;;;;;5074060;28;20051;-90
2023/07/21 05:55:03;;;;;;;6.07;2.65;;;15.50;99.90;;;;;;5068756;28;20030;-88
2023/07/21 05:57:28;;;;;;;5.63;3.05;;;15.60;99.90;;;;;;5068467;28;20069;-88
2023/07/21 05:59:55;;;;;;;4.70;2.80;;;15.60;99.90;;;;;;4948363;28;20064;-90
2023/07/21 06:02:21;;;;;;;4.32;2.95;;;15.70;99.90;;;;;;4975856;28;20053;-87
2023/07/21 06:04:47;;;;;;;3.42;2.53;;;15.80;99.90;;;;;;4981473;28;20042;-88
2023/07/21 06:07:13;;;;;;;3.60;2.80;;;15.80;99.90;;;;;;4968562;28;20540;-89
2023/07/21 06:09:39;;;;;;;5.00;2.95;;;16.00;99.90;;;;;;4978834;28;20058;-90
2023/07/21 06:12:05;;;;;;;4.88;2.55;;;16.10;99.90;;;;;;4964242;28;20046;-90
2023/07/21 06:14:30;;;;;;;3.50;2.67;;;16.20;99.90;;;;;;5046334;28;20183;-89
2023/07/21 06:16:56;;;;;;;4.57;2.75;;;16.20;99.90;;;;;;4968058;28;20042;-88
2023/07/21 06:19:22;;;;;;;3.60;2.42;;;16.30;99.90;;;;;;4992284;28;20057;-92
2023/07/21 06:21:48;;;;;;;3.92;2.60;;;16.40;99.90;;;;;;4984968;28;20045;-91
2023/07/21 06:24:17;;;;;;;4.22;2.55;;;16.50;99.90;;;;;;4979166;28;20049;-90
2023/07/21 06:26:42;;;;;;;4.07;2.85;;;16.50;99.90;;;;;;4977420;28;20042;-90
2023/07/21 06:29:08;;;;;;;6.07;2.45;;;16.60;99.90;;;;;;4990928;28;20089;-90
2023/07/21 06:31:34;;;;;;;4.47;2.30;;;16.70;99.90;;;;;;4973447;28;20031;-90
2023/07/21 06:34:00;;;;;;;4.15;2.80;;;16.80;99.90;;;;;;4958691;28;20784;-89
2023/07/21 06:36:26;;;;;;;4.28;2.45;;;16.90;99.90;;;;;;4955164;28;20038;-89
2023/07/21 06:38:51;;;;;;;3.42;2.58;;;17.10;99.90;;;;;;5057974;28;20042;-89
2023/07/21 06:41:17;;;;;;;7.25;2.47;;;17.10;99.90;;;;;;4957211;28;20038;-89
2023/07/21 06:43:43;;;;;;;3.28;2.10;;;17.30;99.90;;;;;;4946614;28;20034;-89
2023/07/21 06:46:12;;;;;;;3.72;2.20;;;17.40;99.90;;;;;;4975103;28;20044;-90
2023/07/21 06:48:41;;;;;;;4.45;1.90;;;17.50;99.90;;;;;;4948898;28;20042;-92
2023/07/21 06:51:07;;;;;;;2.33;1.90;;;17.70;99.90;;;;;;4958042;28;20118;-89
2023/07/21 06:53:45;;;;;;;2.55;2.15;;;17.80;99.90;;;;;;4961991;28;20046;-89
2023/07/21 06:56:13;;;;;;;4.70;1.90;;;17.90;99.90;;;;;;5039699;28;20043;-89
2023/07/21 06:58:42;;;;;;;3.88;2.05;;;18.00;99.90;;;;;;4970798;28;20031;-91
2023/07/21 07:01:09;;;;;;;2.80;1.90;;;18.20;99.90;;;;;;4971883;28;20053;-92
2023/07/21 07:03:35;;;;;;;3.22;1.95;;;18.50;99.90;;;;;;5055781;28;20105;-90
2023/07/21 07:06:00;;;;;;;2.67;1.70;;;18.60;99.90;;;;;;5051005;28;20085;-90
2023/07/21 07:08:26;;;;;;;2.40;1.63;;;18.70;99.90;;;;;;4950099;28;20085;-90
2023/07/21 07:10:52;;;;;;;3.67;1.70;;;18.90;99.90;;;;;;4938817;28;20059;-93
2023/07/21 07:13:19;;;;;;;2.75;1.60;;;19.20;99.90;;;;;;5055780;28;20062;-90
2023/07/21 07:15:52;;;;;;;2.75;1.45;;;19.40;99.90;;;;;;5022127;28;20096;-90
2023/07/21 07:18:18;;;;;;;1.90;1.48;;;19.50;99.90;;;;;;4957148;28;20038;-89
2023/07/21 07:20:51;;;;;;;1.63;1.50;;;19.50;99.90;;;;;;4955416;28;20050;-91
2023/07/21 07:23:18;;;;;;;1.50;1.30;;;19.20;99.90;;;;;;4939253;28;20042;-90
2023/07/21 07:25:52;;;;;;;2.05;1.35;;;19.80;99.90;;;;;;4939933;28;20053;-90
2023/07/21 07:28:19;;;;;;;2.03;1.50;;;19.80;99.90;;;;;;5058367;28;20070;-92
2023/07/21 07:30:47;;;;;;;3.38;1.60;;;20.10;99.90;;;;;;4970767;28;20049;-92
2023/07/21 07:33:16;;;;;;;2.53;1.58;;;20.10;99.90;;;;;;4958646;28;20068;-89
2023/07/21 07:35:48;;;;;;;3.55;1.52;;;20.30;99.90;;;;;;4973752;28;20034;-89
2023/07/21 07:38:28;;;;;;;3.90;1.65;;;20.50;99.90;;;;;;4954535;28;20104;-88
2023/07/21 07:41:05;;;;;;;1.65;1.30;;;20.50;99.90;;;;;;4954740;28;20522;-88
2023/07/21 07:43:34;;;;;;;3.85;1.70;;;20.60;99.90;;;;;;4973411;28;20534;-89
2023/07/21 07:46:01;;;;;;;1.75;1.08;;;20.60;99.90;;;;;;4958548;28;20046;-90
2023/07/21 07:48:31;;;;;;;2.20;1.33;;;20.60;99.90;;;;;;4973211;28;20053;-89
2023/07/21 07:51:01;;;;;;;1.45;1.20;;;21.10;99.90;;;;;;4959414;28;20037;-91
2023/07/21 07:53:28;;;;;;;2.40;1.52;;;20.10;99.90;;;;;;4973940;28;20035;-90
2023/07/21 07:55:53;;;;;;;1.70;1.30;;;20.30;99.90;;;;;;4973634;28;20054;-90
2023/07/21 07:58:19;;;;;;;2.75;1.25;;;20.40;99.90;;;;;;4957577;28;20120;-88
2023/07/21 08:00:45;;;;;;;2.22;1.38;;;20.40;99.90;;;;;;4961209;28;20039;-89
2023/07/21 08:03:14;;;;;;;1.42;1.30;;;20.50;99.90;;;;;;5054818;28;20035;-90
2023/07/21 08:05:41;;;;;;;2.30;1.27;;;20.60;99.90;;;;;;4954700;28;20487;-90
2023/07/21 08:08:09;;;;;;;2.75;1.52;;;20.60;99.90;;;;;;4970188;28;20109;-90
2023/07/21 08:10:35;;;;;;;3.45;1.55;;;20.80;99.90;;;;;;5055438;28;20088;-91
2023/07/21 08:13:04;;;;;;;2.20;1.40;;;20.50;99.90;;;;;;5078277;28;20040;-90
2023/07/21 08:15:30;;;;;;;3.00;1.40;;;20.60;99.90;;;;;;4973145;28;20050;-91
2023/07/21 08:17:56;;;;;;;1.38;1.20;;;20.40;99.90;;;;;;4997514;28;20511;-90
2023/07/21 08:20:22;;;;;;;2.35;1.30;;;20.50;99.90;;;;;;5075223;28;20043;-90
2023/07/21 08:22:50;;;;;;;2.60;1.20;;;20.80;99.90;;;;;;5076678;28;20043;-90
2023/07/21 08:25:16;;;;;;;3.30;1.63;;;20.90;99.90;;;;;;4996376;28;20072;-88
2023/07/21 08:27:42;;;;;;;1.67;1.30;;;21.20;99.90;;;;;;4974169;28;20046;-91
2023/07/21 08:30:09;;;;;;;1.63;1.00;;;21.30;99.90;;;;;;4974408;28;20042;-89
2023/07/21 08:32:36;;;;;;;2.42;1.30;;;21.40;99.90;;;;;;4957918;28;20049;-89
2023/07/21 08:35:02;;;;;;;1.75;1.30;;;21.40;99.90;;;;;;4961455;28;20108;-88
2023/07/21 08:37:28;;;;;;;1.63;1.10;;;21.00;99.90;;;;;;5055628;28;20036;-89
2023/07/21 08:39:54;;;;;;;1.80;1.17;;;20.70;99.90;;;;;;4986996;28;20134;-89
2023/07/21 08:42:23;;;;;;;2.47;1.10;;;20.50;99.90;;;;;;5057902;28;20046;-88
2023/07/21 08:44:51;;;;;;;1.38;1.10;;;20.70;99.90;;;;;;4958985;28;20042;-91
2023/07/21 08:47:17;;;;;;;1.48;1.10;;;20.90;99.90;;;;;;4987989;28;20067;-89
2023/07/21 08:49:43;;;;;;;4.35;1.00;;;21.20;99.90;;;;;;4965387;28;20073;-92
2023/07/21 08:52:08;;;;;;;3.22;1.42;;;21.10;99.90;;;;;;5076272;28;20039;-92
2023/07/21 08:54:37;;;;;;;2.10;1.17;;;20.90;99.90;;;;;;5006501;28;20036;-91
2023/07/21 08:57:04;;;;;;;7.72;1.30;;;20.90;99.90;;;;;;4957581;28;20391;-90
2023/07/21 08:59:30;;;;;;;2.65;1.05;;;20.90;99.90;;;;;;4973813;28;20046;-89
2023/07/21 09:01:58;;;;;;;1.20;1.10;;;21.00;99.90;;;;;;4965031;28;20126;-89
2023/07/21 09:04:27;;;;;;;1.30;1.00;;;21.30;99.90;;;;;;4972919;28;20046;-90
2023/07/21 09:06:58;;;;;;;2.22;1.10;;;21.20;99.90;;;;;;4965915;28;20042;-90
2023/07/21 09:09:31;;;;;;;2.33;1.30;;;21.60;99.90;;;;;;5059636;28;20057;-91
2023/07/21 09:12:03;;;;;;;1.30;1.02;;;21.60;99.90;;;;;;5065954;28;20052;-89
2023/07/21 09:14:39;;;;;;;1.00;0.90;;;21.90;99.90;;;;;;5058262;28;20475;-90
2023/07/21 09:17:07;;;;;;;3.20;1.20;;;22.00;99.90;;;;;;4958042;28;20039;-91
2023/07/21 09:19:41;;;;;;;1.40;1.13;;;21.50;99.90;;;;;;5055667;28;20028;-89
2023/07/21 09:22:11;;;;;;;1.92;1.20;;;21.50;99.90;;;;;;4985989;28;20529;-88
2023/07/21 09:24:51;;;;;;;1.48;1.10;;;21.60;99.90;;;;;;4971764;28;20081;-88
2023/07/21 09:27:18;;;;;;;1.17;1.08;;;22.10;99.90;;;;;;4975928;28;20103;-90
2023/07/21 09:29:46;;;;;;;1.38;1.08;;;22.00;99.90;;;;;;5059684;28;20043;-89
2023/07/21 09:32:19;;;;;;;1.40;1.20;;;22.00;99.90;;;;;;4978461;28;20072;-87
2023/07/21 09:35:04;;;;;;;1.85;1.20;;;21.90;99.90;;;;;;5001250;28;20042;-91
2023/07/21 09:37:35;;;;;;;1.42;1.30;;;22.50;99.90;;;;;;4995807;28;20045;-91
2023/07/21 09:40:10;;;;;;;1.67;1.45;;;22.80;99.90;;;;;;5065822;28;20402;-89
2023/07/21 09:42:38;;;;;;;5.28;1.40;;;22.60;99.90;;;;;;4972627;28;20038;-91
2023/07/21 09:45:05;;;;;;;2.47;1.25;;;22.60;99.90;;;;;;5059423;28;20123;-89
2023/07/21 09:47:42;;;;;;;1.65;1.30;;;22.70;99.90;;;;;;4959255;28;20049;-89
2023/07/21 09:50:09;;;;;;;1.58;1.30;;;22.10;99.90;;;;;;4958177;28;20039;-91
2023/07/21 09:52:39;;;;;;;2.08;1.30;;;22.60;99.90;;;;;;4956978;28;20038;-89
2023/07/21 09:55:11;;;;;;;1.83;1.30;;;22.60;99.90;;;;;;5074963;28;20390;-89
2023/07/21 09:57:43;;;;;;;1.58;1.30;;;22.70;99.90;;;;;;4965443;28;20070;-91
2023/07/21 10:00:14;;;;;;;1.42;1.25;;;23.10;99.90;;;;;;5066000;28;20042;-89
2023/07/21 10:02:50;;;;;;;1.88;1.30;;;23.40;99.90;;;;;;4976509;28;20038;-90
2023/07/21 10:05:16;;;;;;;1.48;1.27;;;23.60;99.90;;;;;;4981240;28;20441;-89
2023/07/21 10:07:47;;;;;;;1.48;1.20;;;23.40;99.90;;;;;;4966433;28;20043;-89
2023/07/21 10:10:16;;;;;;;2.53;1.58;;;23.30;99.90;;;;;;5053801;28;20141;-89
2023/07/21 10:12:49;;;;;;;1.67;1.50;;;23.50;99.90;;;;;;5069358;28;20073;-89
2023/07/21 10:15:31;;;;;;;2.22;1.27;;;22.90;88.60;;;;;;4967648;28;20039;-88
2023/07/21 10:17:59;;;;;;;3.20;1.45;;;23.10;99.90;;;;;;5063304;28;20502;-88
2023/07/21 10:20:49;;;;;;;2.85;1.40;;;23.20;99.90;;;;;;4969535;28;20044;-89
2023/07/21 10:23:29;;;;;;;2.38;1.50;;;23.30;99.90;;;;;;4967093;28;20041;-88
2023/07/21 10:26:00;;;;;;;1.70;1.40;;;23.60;44.70;;;;;;5062531;28;20041;-90
2023/07/21 10:28:44;;;;;;;2.45;1.58;;;23.70;77.20;;;;;;5063104;28;20045;-91
2023/07/21 10:31:23;;;;;;;1.67;1.50;;;23.60;47.10;;;;;;4982514;28;20042;-88
2023/07/21 10:34:14;;;;;;;1.50;1.38;;;23.40;53.40;;;;;;5070851;28;20050;-88
2023/07/21 10:36:52;;;;;;;2.33;1.98;;;23.40;22.50;;;;;;5074481;28;20038;-90
2023/07/21 10:39:23;;;;;;;1.55;1.42;;;23.20;37.00;;;;;;4957053;28;20478;-89
2023/07/21 10:41:53;;;;;;;2.83;1.25;;;23.20;60.00;;;;;;4962741;28;20039;-89
2023/07/21 10:44:19;;;;;;;2.17;1.35;;;23.20;57.30;;;;;;5006599;28;20041;-87
2023/07/21 10:46:53;;;;;;;2.65;1.17;;;23.20;66.40;;;;;;4969523;28;20046;-89
2023/07/21 10:49:22;;;;;;;2.73;1.50;;;23.00;27.20;;;;;;4969911;28;20130;-90
2023/07/21 10:51:51;;;;;;;1.42;1.13;;;23.00;6.40;;;;;;5075941;28;20415;-90
2023/07/21 10:54:18;;;;;;;1.90;1.33;;;23.20;1.00;;;;;;4984288;28;20042;-90
2023/07/21 10:56:45;;;;;;;1.50;1.10;;;23.30;1.00;;;;;;4957099;28;20046;-88
2023/07/21 10:59:12;;;;;;;1.10;0.90;;;23.40;1.00;;;;;;4960471;28;20482;-89
2023/07/21 11:01:45;;;;;;;1.17;1.08;;;23.80;1.00;;;;;;5060089;28;20045;-89
2023/07/21 11:04:15;;;;;;;2.00;1.30;;;23.80;99.90;;;;;;4957833;28;20060;-88
2023/07/21 11:06:45;;;;;;;1.35;1.00;;;23.80;1.00;;;;;;5052923;28;20074;-91
2023/07/21 11:09:19;;;;;;;1.42;1.17;;;23.90;1.00;;;;;;5073368;28;20125;-90
2023/07/21 11:11:46;;;;;;;1.77;1.15;;;23.90;1.00;;;;;;4972138;28;20286;-89
2023/07/21 11:14:18;;;;;;;3.33;1.50;;;23.60;1.00;;;;;;5055335;28;20043;-90
2023/07/21 11:16:52;;;;;;;1.83;1.45;;;23.50;99.90;;;;;;4970596;28;20076;-86
2023/07/21 11:19:19;;;;;;;1.70;1.30;;;23.60;99.90;;;;;;4970030;28;20035;-87
2023/07/21 11:21:46;;;;;;;2.30;1.58;;;23.60;99.90;;;;;;4969691;28;20121;-88
2023/07/21 11:24:25;;;;;;;2.03;1.80;;;23.70;99.90;;;;;;4962021;28;20050;-90
2023/07/21 11:27:15;;;;;;;2.33;1.60;;;23.70;99.90;;;;;;4955617;28;20055;-89
2023/07/21 11:29:43;;;;;;;2.35;1.42;;;24.00;99.90;;;;;;4942996;28;20054;-91
2023/07/21 11:32:18;;;;;;;2.03;1.40;;;24.30;99.90;;;;;;4972620;28;20046;-91
2023/07/21 11:34:45;;;;;;;1.48;1.38;;;24.40;40.60;;;;;;4957386;28;20092;-89
2023/07/21 11:37:17;;;;;;;1.77;1.20;;;24.40;99.90;;;;;;4953276;28;20446;-88
2023/07/21 11:39:56;;;;;;;1.90;1.48;;;24.30;99.90;;;;;;4978714;28;20121;-90
2023/07/21 11:42:23;;;;;;;2.60;1.67;;;24.40;30.50;;;;;;5008126;28;20070;-90
2023/07/21 11:44:49;;;;;;;6.50;1.67;;;24.60;1.00;;;;;;4982882;28;20092;-89
2023/07/21 11:47:16;;;;;;;1.38;1.25;;;23.80;99.90;;;;;;4974537;28;20099;-89
2023/07/21 11:49:47;;;;;;;2.00;1.40;;;24.20;99.90;;;;;;4973625;28;20048;-90
2023/07/21 11:52:24;;;;;;;3.03;1.73;;;24.40;1.00;;;;;;5046991;28;20042;-89
2023/07/21 11:54:50;;;;;;;2.40;1.52;;;24.60;99.90;;;;;;4995879;28;20443;-91
2023/07/21 11:57:18;;;;;;;1.70;1.60;;;24.90;99.90;;;;;;4988008;28;20275;-89
2023/07/21 11:59:44;;;;;;;2.13;1.50;;;25.10;1.00;;;;;;4967065;28;20031;-90
2023/07/21 12:02:16;;;;;;;2.25;1.42;;;24.20;1.00;;;;;;5006191;28;20076;-90
2023/07/21 12:04:42;;;;;;;1.73;1.60;;;24.40;99.90;;;;;;4991810;28;20041;-88
2023/07/21 12:07:08;;;;;;;1.95;1.70;;;24.30;1.00;;;;;;4983534;28;20074;-89
2023/07/21 12:09:34;;;;;;;3.13;1.60;;;23.70;40.00;;;;;;5058191;28;20225;-89
2023/07/21 12:12:00;;;;;;;2.83;2.00;;;23.80;1.00;;;;;;5042789;28;20472;-90
2023/07/21 12:14:26;;;;;;;2.50;1.52;;;23.90;1.00;;;;;;4973240;28;20133;-90
2023/07/21 12:16:55;;;;;;;1.70;1.60;;;23.90;99.90;;;;;;5061955;28;20065;-89
2023/07/21 12:19:25;;;;;;;2.70;1.70;;;24.00;99.90;;;;;;5051918;28;20091;-90
2023/07/21 12:21:55;;;;;;;4.18;1.80;;;24.20;99.90;;;;;;5066048;28;20380;-90
2023/07/21 12:24:21;;;;;;;3.33;1.77;;;23.40;71.00;;;;;;4987961;28;20039;-91
2023/07/21 12:26:47;;;;;;;3.63;1.85;;;21.70;1.00;;;;;;4975319;28;20187;-90
2023/07/21 12:29:14;;;;;;;3.35;2.00;;;21.00;97.80;;;;;;4983241;28;20609;-88
2023/07/21 12:31:40;;;;;;;3.28;2.20;;;20.70;99.90;;;;;;4983812;28;20054;-89
2023/07/21 12:34:06;;;;;;;5.00;2.42;;;20.30;99.90;;;;;;4944441;28;20043;-89
2023/07/21 12:36:32;;;;;;;5.30;2.30;;;20.00;99.90;;;;;;4993036;28;20066;-90
2023/07/21 12:38:57;;;;;;;3.08;2.40;;;19.70;99.90;;;;;;4990690;28;20077;-88
2023/07/21 12:41:23;;;;;;;4.15;2.13;;;19.50;99.90;;;;;;4960096;28;20043;-89
2023/07/21 12:43:49;;;;;;;2.42;1.88;;;19.30;99.90;;;;;;5044892;28;20802;-88
2023/07/21 12:46:15;;;;;;;3.20;2.15;;;19.20;99.90;;;;;;4994626;28;20127;-89
2023/07/21 12:48:42;;;;;;;3.17;2.58;;;19.00;99.90;;;;;;4993567;28;20050;-90
2023/07/21 12:51:08;;;;;;;4.03;2.58;;;18.80;99.90;;;;;;4969500;28;20654;-88
2023/07/21 12:53:34;;;;;;;3.78;2.50;;;18.50;99.90;;;;;;4950188;28;20069;-89
2023/07/21 12:56:01;;;;;;;2.80;2.38;;;18.50;99.90;;;;;;4969573;28;20070;-89